Agency Village, South Dakota
Current Conditions -  °F | °C
As of 10:36 AM on Saturday 25 Oct 2014 (Local Time) from KETH Reporting Station
Clear Clear  
Wind Chill: 12°   Ceiling: Unl
Heat Index: 12°   Visibility: 10mi
Dew Point:   Wind: 14mph
Humidity: 51%   Direction: 300°WNW
Pressure: 30.14"   Gusts: 18mph
Location:  45.7041°N, 96.9842°W
Report Text: KETH 251536Z AUTO 30012G16KT 10SM CLR 12/02 A3014 RMK AO2
Loading
Personal Weather Stations






























Interactive Weather Map
Tropical Storm Tracking
New forecast layout! Learn more

10-Day Weather Forecast

Advertisements
Track Severe Weather on mobile